Time;durP1;ratioP1;P1;durP2;ratioP2;P2;SDS_P1;SDS_P2;PMS_P1;PMS_P2;Temp;Humidity;BMP_temperature;BMP_pressure;BME280_temperature;BME280_humidity;BME280_pressure;Samples;Min_cycle;Max_cycle;Signal;HPM_P1;HPM_P2
2023/01/04 00:01:12;;;;;;;0.10;0.10;;;8.20;1.00;;;;;;5096505;28;20377;-87
2023/01/04 00:03:38;;;;;;;1.17;0.40;;;8.20;1.00;;;;;;5096188;28;20047;-87
2023/01/04 00:06:06;;;;;;;0.20;0.20;;;8.30;1.00;;;;;;5096943;28;20043;-86
2023/01/04 00:08:32;;;;;;;0.45;0.28;;;8.30;1.00;;;;;;5096768;28;20062;-87
2023/01/04 00:11:06;;;;;;;0.22;0.22;;;8.30;1.00;;;;;;5097327;28;20096;-87
2023/01/04 00:13:33;;;;;;;0.30;0.30;;;8.30;99.90;;;;;;5097740;28;20058;-87
2023/01/04 00:16:03;;;;;;;0.00;0.00;;;8.40;99.90;;;;;;5097498;28;20379;-87
2023/01/04 00:18:30;;;;;;;0.20;0.20;;;8.40;99.90;;;;;;5097177;28;20530;-87
2023/01/04 00:21:09;;;;;;;0.43;0.40;;;8.50;1.00;;;;;;5098600;28;20441;-87
2023/01/04 00:23:35;;;;;;;0.57;0.55;;;8.40;1.00;;;;;;5096627;28;20040;-87
2023/01/04 00:26:00;;;;;;;0.10;0.10;;;8.40;1.00;;;;;;5098114;28;20040;-87
2023/01/04 00:28:26;;;;;;;0.00;0.00;;;8.30;1.00;;;;;;5098170;28;20041;-87
2023/01/04 00:30:51;;;;;;;1.23;1.13;;;8.30;1.00;;;;;;5098012;28;20077;-87
2023/01/04 00:33:17;;;;;;;0.00;0.00;;;8.20;99.90;;;;;;5098239;28;20036;-87
2023/01/04 00:35:43;;;;;;;3.75;2.00;;;8.20;99.90;;;;;;5096725;28;20051;-87
2023/01/04 00:38:08;;;;;;;0.00;0.00;;;8.10;99.90;;;;;;5097207;28;20050;-87
2023/01/04 00:40:34;;;;;;;1.38;1.27;;;8.10;99.90;;;;;;5097116;28;20046;-87
2023/01/04 00:42:59;;;;;;;0.10;0.10;;;8.10;99.90;;;;;;5096625;28;20071;-88
2023/01/04 00:45:25;;;;;;;0.45;0.45;;;8.10;99.90;;;;;;5096191;28;20398;-87
2023/01/04 00:47:50;;;;;;;0.35;0.35;;;8.00;99.90;;;;;;5096367;28;20055;-87
2023/01/04 00:50:16;;;;;;;0.28;0.20;;;7.90;99.90;;;;;;5096539;28;20052;-88
2023/01/04 00:52:42;;;;;;;0.57;0.15;;;7.90;99.90;;;;;;5096773;28;20051;-88
2023/01/04 00:55:08;;;;;;;0.10;0.10;;;7.80;99.90;;;;;;5097482;28;20043;-88
2023/01/04 00:57:33;;;;;;;1.75;0.98;;;7.80;99.90;;;;;;5097051;28;20047;-88
2023/01/04 00:59:59;;;;;;;0.85;0.68;;;7.70;99.90;;;;;;5097034;28;20040;-87
2023/01/04 01:02:24;;;;;;;0.00;0.00;;;7.80;99.90;;;;;;5095822;28;20605;-88
2023/01/04 01:04:50;;;;;;;0.00;0.00;;;8.90;99.90;;;;;;5097229;28;20036;-88
2023/01/04 01:07:15;;;;;;;0.00;0.00;;;7.70;99.90;;;;;;5096023;28;20044;-87
2023/01/04 01:09:41;;;;;;;0.10;0.10;;;7.70;99.90;;;;;;5096325;28;20040;-88
2023/01/04 01:12:07;;;;;;;0.00;0.00;;;7.70;99.90;;;;;;5097400;28;20048;-87
2023/01/04 01:14:32;;;;;;;0.90;0.88;;;7.70;99.90;;;;;;5096014;28;20046;-88
2023/01/04 01:16:58;;;;;;;0.32;0.32;;;7.70;99.90;;;;;;5096012;28;20035;-88
2023/01/04 01:19:25;;;;;;;0.08;0.08;;;7.70;99.90;;;;;;5096101;28;20062;-88
2023/01/04 01:21:51;;;;;;;0.35;0.35;;;7.70;99.90;;;;;;5096312;28;20084;-88
2023/01/04 01:24:18;;;;;;;0.20;0.20;;;7.70;99.90;;;;;;5095989;28;20051;-88
2023/01/04 01:26:44;;;;;;;0.15;0.15;;;7.70;99.90;;;;;;5095780;28;20399;-88
2023/01/04 01:29:10;;;;;;;0.10;0.10;;;7.70;99.90;;;;;;5095405;28;20044;-88
2023/01/04 01:31:35;;;;;;;0.22;0.22;;;7.70;99.90;;;;;;5096103;28;20698;-87
2023/01/04 01:34:01;;;;;;;2.05;1.20;;;7.70;99.90;;;;;;5096865;28;20075;-88
2023/01/04 01:36:27;;;;;;;0.20;0.10;;;7.70;99.90;;;;;;5096990;28;20130;-88
2023/01/04 01:38:53;;;;;;;0.10;0.10;;;7.90;99.90;;;;;;5097492;28;20075;-88
2023/01/04 01:41:22;;;;;;;1.17;0.20;;;7.80;99.90;;;;;;5098090;28;20074;-88
2023/01/04 01:43:53;;;;;;;6.22;0.30;;;7.80;99.90;;;;;;5096448;28;20044;-88
2023/01/04 01:46:40;;;;;;;0.03;0.03;;;7.80;99.90;;;;;;5095137;28;20048;-88
2023/01/04 01:49:23;;;;;;;0.10;0.10;;;7.80;99.90;;;;;;5097014;28;20361;-88
2023/01/04 01:51:49;;;;;;;0.47;0.47;;;7.80;99.90;;;;;;5096474;28;20070;-87
2023/01/04 01:54:25;;;;;;;0.32;0.32;;;7.80;99.90;;;;;;5096612;28;20411;-87
2023/01/04 01:56:54;;;;;;;0.00;0.00;;;7.80;99.90;;;;;;5094927;28;20036;-87
2023/01/04 01:59:20;;;;;;;0.65;0.65;;;7.80;99.90;;;;;;5094848;28;20395;-88
2023/01/04 02:01:46;;;;;;;2.72;0.60;;;7.90;99.90;;;;;;5095638;28;20507;-88
2023/01/04 02:04:13;;;;;;;0.08;0.08;;;7.90;99.90;;;;;;5094708;28;20073;-87
2023/01/04 02:06:44;;;;;;;0.00;0.00;;;7.90;99.90;;;;;;5094369;28;20036;-87
2023/01/04 02:09:10;;;;;;;0.00;0.00;;;7.90;99.90;;;;;;5094506;28;20047;-87
2023/01/04 02:11:36;;;;;;;0.32;0.32;;;8.70;99.90;;;;;;5095023;28;20040;-87
2023/01/04 02:17:35;;;;;;;0.00;0.00;;;7.80;99.90;;;;;;5094521;28;20106;-88
2023/01/04 02:20:25;;;;;;;0.15;0.15;;;7.90;99.90;;;;;;4982219;28;20132;-88
2023/01/04 02:23:23;;;;;;;0.00;0.00;;;8.00;99.90;;;;;;5094525;28;20055;-88
2023/01/04 02:25:55;;;;;;;0.00;0.00;;;8.00;99.90;;;;;;5095723;28;20037;-88
2023/01/04 02:29:09;;;;;;;0.00;0.00;;;8.00;99.90;;;;;;5095844;28;20048;-88
2023/01/04 02:31:57;;;;;;;0.00;0.00;;;7.90;99.90;;;;;;5048941;28;20109;-88
2023/01/04 02:34:47;;;;;;;0.00;0.00;;;8.00;99.90;;;;;;5095173;28;20048;-88
2023/01/04 02:37:39;;;;;;;0.00;0.00;;;8.50;99.90;;;;;;5094169;28;20050;-88
2023/01/04 02:40:11;;;;;;;0.00;0.00;;;8.00;99.90;;;;;;5075540;28;20091;-88
2023/01/04 02:45:40;;;;;;;0.00;0.00;;;8.00;99.90;;;;;;5078160;28;20052;-87
2023/01/04 02:50:55;;;;;;;0.75;0.47;;;8.00;99.90;;;;;;5079382;28;20041;-88
2023/01/04 02:53:41;;;;;;;0.00;0.00;;;8.10;99.90;;;;;;5077714;28;20037;-88
2023/01/04 02:56:36;;;;;;;0.00;0.00;;;8.10;99.90;;;;;;5078955;28;20088;-88
2023/01/04 02:59:09;;;;;;;0.38;0.15;;;8.10;99.90;;;;;;5079814;28;20048;-88
2023/01/04 03:08:24;;;;;;;0.00;0.00;;;8.10;99.90;;;;;;5088697;28;20078;-87
2023/01/04 03:14:21;;;;;;;0.00;0.00;;;8.20;99.90;;;;;;5082302;28;20137;-89
2023/01/04 03:16:49;;;;;;;0.38;0.30;;;8.20;99.90;;;;;;5076446;28;20048;-88
2023/01/04 03:20:05;;;;;;;0.10;0.10;;;8.20;99.90;;;;;;5082613;28;20132;-88
2023/01/04 03:35:21;;;;;;;0.00;0.00;;;8.30;99.90;;;;;;5070551;28;20049;-89
2023/01/04 03:36:26;;;;;;;0.00;0.00;;;8.50;99.90;;;;;;5078393;28;20060;-88
2023/01/04 03:48:33;;;;;;;0.20;0.17;;;8.70;99.90;;;;;;5076441;28;20517;-87
2023/01/04 03:51:13;;;;;;;0.00;0.00;;;8.80;99.90;;;;;;5076020;28;20480;-87
2023/01/04 03:53:57;;;;;;;0.00;0.00;;;8.90;99.90;;;;;;5074824;28;20695;-87
2023/01/04 03:56:25;;;;;;;0.00;0.00;;;8.90;99.90;;;;;;5077019;28;20056;-87
2023/01/04 03:58:53;;;;;;;0.00;0.00;;;9.70;99.90;;;;;;5076994;28;20044;-86
2023/01/04 04:01:20;;;;;;;0.00;0.00;;;9.00;99.90;;;;;;5077161;28;20044;-86
2023/01/04 04:09:14;;;;;;;0.00;0.00;;;9.20;99.90;;;;;;5094288;28;20504;-86
2023/01/04 04:11:39;;;;;;;0.17;0.17;;;9.20;99.90;;;;;;5097565;28;20040;-86
2023/01/04 04:14:05;;;;;;;0.47;0.22;;;9.70;99.90;;;;;;5096971;28;20379;-86
2023/01/04 04:16:30;;;;;;;0.25;0.22;;;9.30;99.90;;;;;;5096444;28;20101;-86
2023/01/04 04:18:56;;;;;;;0.00;0.00;;;9.40;99.90;;;;;;5097947;28;20043;-86
2023/01/04 04:21:22;;;;;;;0.00;0.00;;;9.40;99.90;;;;;;5096610;28;20067;-85
2023/01/04 04:23:48;;;;;;;0.00;0.00;;;9.40;99.90;;;;;;5096466;28;20567;-84
2023/01/04 04:26:14;;;;;;;0.85;0.60;;;9.40;99.90;;;;;;5096253;28;20079;-84
2023/01/04 04:28:41;;;;;;;0.00;0.00;;;9.50;99.90;;;;;;5097176;28;20051;-84
2023/01/04 04:31:07;;;;;;;0.05;0.05;;;9.50;99.90;;;;;;5097763;28;20040;-84
2023/01/04 04:33:32;;;;;;;0.20;0.20;;;10.30;99.90;;;;;;5097941;28;20452;-84
2023/01/04 04:35:58;;;;;;;0.40;0.10;;;9.60;99.90;;;;;;5099035;28;20052;-85
2023/01/04 04:38:23;;;;;;;0.00;0.00;;;9.60;99.90;;;;;;5100293;28;20043;-84
2023/01/04 04:43:35;;;;;;;0.73;0.17;;;9.70;99.90;;;;;;5102211;28;20144;-84
2023/01/04 04:46:02;;;;;;;0.00;0.00;;;9.70;99.90;;;;;;5102139;28;20035;-83
2023/01/04 04:48:27;;;;;;;0.00;0.00;;;9.70;99.90;;;;;;5054402;28;1048280;-84
2023/01/04 04:50:53;;;;;;;0.43;0.10;;;9.80;99.90;;;;;;5066061;28;20625;-84
2023/01/04 04:53:19;;;;;;;0.28;0.28;;;9.80;99.90;;;;;;5083164;28;20048;-83
2023/01/04 04:55:44;;;;;;;0.00;0.00;;;9.80;99.90;;;;;;5088970;28;20499;-83
2023/01/04 04:58:10;;;;;;;0.00;0.00;;;9.80;99.90;;;;;;5101410;28;20051;-83
2023/01/04 05:00:35;;;;;;;0.00;0.00;;;9.80;99.90;;;;;;5101914;28;20105;-83
2023/01/04 05:03:01;;;;;;;0.00;0.00;;;9.90;99.90;;;;;;5101011;28;20036;-83
2023/01/04 05:05:27;;;;;;;0.00;0.00;;;9.90;99.90;;;;;;5098976;28;20036;-84
2023/01/04 05:07:53;;;;;;;0.00;0.00;;;9.90;99.90;;;;;;5098202;28;20044;-83
2023/01/04 05:10:19;;;;;;;0.00;0.00;;;10.00;99.90;;;;;;5099231;28;20067;-84
2023/01/04 05:13:00;;;;;;;0.00;0.00;;;10.00;99.90;;;;;;5099909;28;20040;-84
2023/01/04 05:15:33;;;;;;;0.05;0.05;;;10.00;99.90;;;;;;5096380;28;20040;-84
2023/01/04 05:17:59;;;;;;;0.00;0.00;;;10.10;99.90;;;;;;5095288;28;20050;-86
2023/01/04 05:20:25;;;;;;;0.00;0.00;;;10.10;99.90;;;;;;5096034;28;20461;-86
2023/01/04 05:22:50;;;;;;;0.00;0.00;;;10.10;99.90;;;;;;5095457;28;20540;-86
2023/01/04 05:25:16;;;;;;;0.10;0.10;;;10.20;99.90;;;;;;5095685;28;20040;-85
2023/01/04 05:27:42;;;;;;;0.77;0.52;;;11.40;99.90;;;;;;5095783;28;20491;-84
2023/01/04 05:32:55;;;;;;;0.25;0.25;;;10.30;99.90;;;;;;5095506;28;20059;-85
2023/01/04 05:35:21;;;;;;;0.00;0.00;;;10.30;99.90;;;;;;5095834;28;20054;-86
2023/01/04 05:37:47;;;;;;;0.00;0.00;;;10.50;99.90;;;;;;5096550;28;20406;-86
2023/01/04 05:40:12;;;;;;;0.00;0.00;;;10.30;99.90;;;;;;5095079;28;20085;-86
2023/01/04 05:42:38;;;;;;;0.22;0.20;;;10.30;99.90;;;;;;5095363;28;20127;-86
2023/01/04 05:45:05;;;;;;;0.00;0.00;;;10.40;99.90;;;;;;5095024;28;20039;-86
2023/01/04 05:47:31;;;;;;;0.00;0.00;;;10.40;99.90;;;;;;5095949;28;20468;-87
2023/01/04 05:49:56;;;;;;;0.32;0.32;;;10.40;99.90;;;;;;5098262;28;20067;-88
2023/01/04 05:52:22;;;;;;;0.10;0.05;;;10.40;99.90;;;;;;5097953;28;20040;-87
2023/01/04 05:54:48;;;;;;;0.35;0.32;;;10.40;99.90;;;;;;5097840;28;20145;-87
2023/01/04 05:57:13;;;;;;;0.10;0.00;;;10.40;99.90;;;;;;5097881;28;20567;-87
2023/01/04 05:59:39;;;;;;;0.00;0.00;;;10.40;99.90;;;;;;5093839;28;20078;-88
2023/01/04 06:02:05;;;;;;;0.00;0.00;;;10.40;99.90;;;;;;5093540;28;20123;-87
2023/01/04 06:04:31;;;;;;;0.10;0.10;;;10.40;99.90;;;;;;5093778;28;20039;-87
2023/01/04 06:06:56;;;;;;;0.00;0.00;;;10.40;99.90;;;;;;5092347;28;20055;-87
2023/01/04 06:09:23;;;;;;;0.00;0.00;;;10.40;99.90;;;;;;5092473;28;20054;-87
2023/01/04 06:11:49;;;;;;;0.35;0.20;;;10.40;99.90;;;;;;5093713;28;20048;-87
2023/01/04 06:14:15;;;;;;;0.20;0.15;;;10.40;99.90;;;;;;5093324;28;20052;-87
2023/01/04 06:16:40;;;;;;;0.00;0.00;;;10.40;99.90;;;;;;5094985;28;20473;-87
2023/01/04 06:19:06;;;;;;;0.65;0.52;;;10.40;99.90;;;;;;5093866;28;20494;-87
2023/01/04 06:21:32;;;;;;;0.00;0.00;;;11.10;99.90;;;;;;5093532;28;20044;-88
2023/01/04 06:23:57;;;;;;;0.10;0.10;;;10.40;99.90;;;;;;5092129;28;20499;-88
2023/01/04 06:26:23;;;;;;;0.43;0.28;;;10.40;99.90;;;;;;5093018;28;20044;-87
2023/01/04 06:28:48;;;;;;;4.10;0.30;;;10.40;99.90;;;;;;5093433;28;20040;-88
2023/01/04 06:31:14;;;;;;;0.00;0.00;;;10.40;99.90;;;;;;5093407;28;20043;-87
2023/01/04 06:33:40;;;;;;;0.73;0.47;;;10.90;99.90;;;;;;5093286;28;20044;-87
2023/01/04 06:36:06;;;;;;;0.43;0.20;;;10.50;99.90;;;;;;5093407;28;20513;-87
2023/01/04 06:38:32;;;;;;;0.00;0.00;;;10.50;99.90;;;;;;5094518;28;20036;-87
2023/01/04 06:40:58;;;;;;;0.00;0.00;;;10.50;99.90;;;;;;5093294;28;20448;-87
2023/01/04 06:43:24;;;;;;;0.00;0.00;;;10.50;99.90;;;;;;5093072;28;20075;-87
2023/01/04 06:45:49;;;;;;;0.00;0.00;;;10.70;99.90;;;;;;5091280;28;20067;-87
2023/01/04 06:48:15;;;;;;;0.00;0.00;;;10.50;99.90;;;;;;5092631;28;20177;-87
2023/01/04 06:50:41;;;;;;;0.52;0.40;;;10.50;99.90;;;;;;5092725;28;20048;-87
2023/01/04 06:53:07;;;;;;;0.38;0.32;;;10.60;99.90;;;;;;5092777;28;20449;-87
2023/01/04 06:55:33;;;;;;;0.00;0.00;;;10.60;99.90;;;;;;5092795;28;20048;-87
2023/01/04 06:57:58;;;;;;;0.15;0.15;;;10.60;99.90;;;;;;5092694;28;20032;-87
2023/01/04 07:00:24;;;;;;;0.00;0.00;;;11.80;99.90;;;;;;5093539;28;20044;-88
2023/01/04 07:02:50;;;;;;;0.77;0.08;;;11.60;99.90;;;;;;5093279;28;20124;-87
2023/01/04 07:05:16;;;;;;;0.15;0.10;;;10.70;99.90;;;;;;5092910;28;20040;-87
2023/01/04 07:07:42;;;;;;;1.35;0.70;;;10.70;99.90;;;;;;5091471;28;20085;-87
2023/01/04 07:10:08;;;;;;;0.20;0.20;;;10.80;99.90;;;;;;5092838;28;20039;-87
2023/01/04 07:12:33;;;;;;;0.00;0.00;;;10.70;99.90;;;;;;5092722;28;20407;-86
2023/01/04 07:14:59;;;;;;;0.00;0.00;;;10.70;99.90;;;;;;5092603;28;20037;-86
2023/01/04 07:17:25;;;;;;;0.30;0.22;;;10.70;99.90;;;;;;5092219;28;20040;-86
2023/01/04 07:19:51;;;;;;;0.00;0.00;;;10.70;99.90;;;;;;5091874;28;20411;-86
2023/01/04 07:22:17;;;;;;;0.00;0.00;;;10.70;99.90;;;;;;5090120;28;20047;-86
2023/01/04 07:24:42;;;;;;;0.00;0.00;;;10.70;99.90;;;;;;5089906;28;20119;-86
2023/01/04 07:27:11;;;;;;;0.00;0.00;;;10.70;99.90;;;;;;5089487;28;20048;-85
2023/01/04 07:29:37;;;;;;;0.00;0.00;;;11.30;99.90;;;;;;5091553;28;20116;-84
2023/01/04 07:32:03;;;;;;;0.00;0.00;;;10.70;99.90;;;;;;5093435;28;20138;-85
2023/01/04 07:34:30;;;;;;;0.05;0.05;;;10.70;99.90;;;;;;5094222;28;20122;-84
2023/01/04 07:36:55;;;;;;;0.40;0.40;;;10.70;99.90;;;;;;5093497;28;20066;-84
2023/01/04 07:39:22;;;;;;;0.00;0.00;;;10.70;99.90;;;;;;5094002;28;20048;-85
2023/01/04 07:41:48;;;;;;;0.00;0.00;;;10.70;99.90;;;;;;5093901;28;20067;-85
2023/01/04 07:44:16;;;;;;;0.00;0.00;;;10.70;99.90;;;;;;5093636;28;20040;-85
2023/01/04 07:46:42;;;;;;;0.00;0.00;;;10.70;99.90;;;;;;5092838;28;20404;-85
2023/01/04 07:49:13;;;;;;;0.00;0.00;;;10.70;99.90;;;;;;5092686;28;20051;-85
2023/01/04 07:51:39;;;;;;;0.00;0.00;;;10.70;99.90;;;;;;5093001;28;20093;-86
2023/01/04 07:54:04;;;;;;;0.00;0.00;;;10.70;99.90;;;;;;5093633;28;20429;-86
2023/01/04 07:56:30;;;;;;;0.00;0.00;;;10.70;99.90;;;;;;5092527;28;20375;-87
2023/01/04 07:58:57;;;;;;;0.00;0.00;;;10.70;99.90;;;;;;5075799;28;20046;-87
2023/01/04 08:01:24;;;;;;;0.65;0.17;;;11.60;99.90;;;;;;5075980;28;20056;-86
2023/01/04 08:03:50;;;;;;;0.08;0.08;;;10.80;99.90;;;;;;5093630;28;20048;-87
2023/01/04 08:06:16;;;;;;;0.10;0.10;;;10.80;99.90;;;;;;5093203;28;20032;-87
2023/01/04 08:08:42;;;;;;;0.00;0.00;;;10.80;99.90;;;;;;5093905;28;20059;-87
2023/01/04 08:11:10;;;;;;;0.00;0.00;;;10.80;99.90;;;;;;5094067;28;20051;-87
2023/01/04 08:13:36;;;;;;;0.00;0.00;;;10.80;99.90;;;;;;5093629;28;20430;-87
2023/01/04 08:16:02;;;;;;;0.00;0.00;;;10.80;99.90;;;;;;5093847;28;20055;-87
2023/01/04 08:18:28;;;;;;;0.00;0.00;;;10.80;99.90;;;;;;5093745;28;20487;-86
2023/01/04 08:21:03;;;;;;;0.00;0.00;;;10.80;99.90;;;;;;5093728;28;20096;-88
2023/01/04 08:23:29;;;;;;;0.00;0.00;;;10.80;99.90;;;;;;5093765;28;20040;-88
2023/01/04 08:25:55;;;;;;;0.00;0.00;;;10.90;99.90;;;;;;5094088;28;20036;-87
2023/01/04 08:28:20;;;;;;;0.00;0.00;;;10.80;99.90;;;;;;5095590;28;20085;-87
2023/01/04 08:30:46;;;;;;;0.10;0.10;;;10.80;99.90;;;;;;5093398;28;20047;-87
2023/01/04 08:33:13;;;;;;;0.00;0.00;;;10.80;99.90;;;;;;5093521;28;20050;-87
2023/01/04 08:35:39;;;;;;;0.15;0.05;;;10.90;99.90;;;;;;5093240;28;20487;-87
2023/01/04 08:38:04;;;;;;;0.00;0.00;;;10.90;99.90;;;;;;5093828;28;20043;-87
2023/01/04 08:40:30;;;;;;;0.05;0.05;;;10.90;99.90;;;;;;5090992;28;20402;-88
2023/01/04 08:42:55;;;;;;;0.10;0.10;;;12.20;99.90;;;;;;5093483;28;20085;-88
2023/01/04 08:45:21;;;;;;;0.00;0.00;;;11.90;99.90;;;;;;5093303;28;20076;-88
2023/01/04 08:47:46;;;;;;;0.00;0.00;;;10.90;99.90;;;;;;5092848;28;20395;-88
2023/01/04 08:50:15;;;;;;;0.00;0.00;;;10.90;99.90;;;;;;5093224;28;20082;-88
2023/01/04 08:52:41;;;;;;;0.00;0.00;;;10.90;99.90;;;;;;5093058;28;20395;-87
2023/01/04 08:55:07;;;;;;;0.00;0.00;;;10.90;99.90;;;;;;5093159;28;20047;-87
2023/01/04 08:57:34;;;;;;;0.00;0.00;;;10.90;99.90;;;;;;5092553;28;20101;-87
2023/01/04 08:59:59;;;;;;;0.00;0.00;;;10.90;99.90;;;;;;5092647;28;20150;-88
2023/01/04 09:02:26;;;;;;;0.05;0.05;;;10.90;99.90;;;;;;5092803;28;20524;-88
2023/01/04 09:04:58;;;;;;;0.00;0.00;;;11.60;99.90;;;;;;5093229;28;20127;-87
2023/01/04 09:07:24;;;;;;;0.43;0.40;;;11.00;99.90;;;;;;5092666;28;20088;-87
2023/01/04 09:09:50;;;;;;;0.30;0.30;;;12.10;99.90;;;;;;5093183;28;20044;-88
2023/01/04 09:12:15;;;;;;;0.00;0.00;;;11.00;99.90;;;;;;5092977;28;20038;-89
2023/01/04 09:14:41;;;;;;;3.08;0.63;;;12.20;99.90;;;;;;5093208;28;20071;-89
2023/01/04 09:17:06;;;;;;;0.00;0.00;;;11.00;99.90;;;;;;5092845;28;20048;-89
2023/01/04 09:19:32;;;;;;;0.00;0.00;;;11.00;99.90;;;;;;5090791;28;20040;-89
2023/01/04 09:21:58;;;;;;;0.00;0.00;;;11.40;99.90;;;;;;5092917;28;20052;-88
2023/01/04 09:24:23;;;;;;;0.20;0.13;;;11.90;99.90;;;;;;5093094;28;20467;-88
2023/01/04 09:26:49;;;;;;;0.00;0.00;;;11.10;99.90;;;;;;5092684;28;20047;-88
2023/01/04 09:29:15;;;;;;;0.00;0.00;;;11.10;99.90;;;;;;5092770;28;20475;-88
2023/01/04 09:31:41;;;;;;;0.20;0.10;;;11.10;99.90;;;;;;5092718;28;20051;-88
2023/01/04 09:34:06;;;;;;;0.00;0.00;;;11.90;99.90;;;;;;5092447;28;20483;-88
2023/01/04 09:36:32;;;;;;;0.20;0.15;;;11.10;99.90;;;;;;5092464;28;20082;-87
2023/01/04 09:38:58;;;;;;;0.00;0.00;;;11.10;99.90;;;;;;5091851;28;20071;-87
2023/01/04 09:41:45;;;;;;;0.10;0.10;;;11.30;99.90;;;;;;5092048;28;20101;-87
2023/01/04 09:44:18;;;;;;;0.20;0.20;;;11.10;99.90;;;;;;5082962;28;20063;-87
2023/01/04 09:46:55;;;;;;;0.00;0.00;;;11.10;99.90;;;;;;5091949;28;20080;-87
2023/01/04 09:49:36;;;;;;;0.00;0.00;;;11.10;99.90;;;;;;5091953;28;20063;-87
2023/01/04 09:52:19;;;;;;;0.00;0.00;;;11.20;99.90;;;;;;5091408;28;20051;-87
2023/01/04 09:55:00;;;;;;;0.00;0.00;;;11.20;99.90;;;;;;5090191;28;20086;-86
2023/01/04 09:57:28;;;;;;;0.00;0.00;;;11.20;99.90;;;;;;5091585;28;20052;-86
2023/01/04 10:00:00;;;;;;;0.00;0.00;;;11.30;99.90;;;;;;5071054;28;20071;-87
2023/01/04 10:02:43;;;;;;;0.08;0.08;;;11.30;99.90;;;;;;5081069;28;20051;-87
2023/01/04 10:05:21;;;;;;;0.10;0.10;;;11.40;99.90;;;;;;5090240;28;20044;-86
2023/01/04 10:07:46;;;;;;;0.08;0.08;;;11.40;99.90;;;;;;5090130;28;20486;-87
2023/01/04 10:10:14;;;;;;;0.00;0.00;;;11.40;99.90;;;;;;5090355;28;20046;-87
2023/01/04 10:13:09;;;;;;;0.05;0.05;;;11.40;99.90;;;;;;5089854;28;20521;-87
2023/01/04 10:15:43;;;;;;;0.00;0.00;;;11.30;99.90;;;;;;5072283;28;20109;-87
2023/01/04 10:18:27;;;;;;;1.00;0.57;;;11.30;99.90;;;;;;5089888;28;20067;-87
2023/01/04 10:20:56;;;;;;;0.13;0.13;;;11.40;99.90;;;;;;5090362;28;20048;-87
2023/01/04 10:23:57;;;;;;;0.00;0.00;;;11.40;99.90;;;;;;5090019;28;20050;-86
2023/01/04 10:26:38;;;;;;;0.00;0.00;;;11.40;99.90;;;;;;5090236;28;20403;-86
2023/01/04 10:29:45;;;;;;;0.00;0.00;;;11.40;99.90;;;;;;5089425;28;20637;-87
2023/01/04 10:32:40;;;;;;;0.45;0.30;;;11.40;99.90;;;;;;5058071;28;20078;-86
2023/01/04 10:35:26;;;;;;;1.75;0.70;;;11.50;99.90;;;;;;5089517;28;20047;-87
2023/01/04 10:37:56;;;;;;;0.00;0.00;;;11.80;99.90;;;;;;5089770;28;20040;-87
2023/01/04 10:40:24;;;;;;;1.27;0.90;;;11.60;99.90;;;;;;5089858;28;20079;-87
2023/01/04 10:42:54;;;;;;;1.00;0.80;;;11.50;99.90;;;;;;5089851;28;20052;-87
2023/01/04 10:45:31;;;;;;;1.85;1.42;;;12.60;99.90;;;;;;5088106;28;20056;-87
2023/01/04 10:48:12;;;;;;;1.67;0.30;;;11.60;99.90;;;;;;5088845;28;20079;-87
2023/01/04 10:50:57;;;;;;;0.00;0.00;;;11.60;99.90;;;;;;5089514;28;20558;-87
2023/01/04 10:53:26;;;;;;;0.00;0.00;;;11.60;99.90;;;;;;5089504;28;20422;-87
2023/01/04 10:56:03;;;;;;;4.20;2.40;;;11.60;99.90;;;;;;5089345;28;20129;-86
2023/01/04 10:58:36;;;;;;;1.40;0.68;;;11.60;99.90;;;;;;5089335;28;20075;-87
2023/01/04 11:01:11;;;;;;;12.57;1.85;;;11.60;99.90;;;;;;5098270;28;20060;-86
2023/01/04 11:03:52;;;;;;;4.43;1.55;;;11.60;99.90;;;;;;5098968;28;20036;-87
2023/01/04 11:06:21;;;;;;;0.55;0.40;;;11.60;99.90;;;;;;5093252;28;20089;-87
2023/01/04 11:08:57;;;;;;;0.03;0.03;;;11.60;99.90;;;;;;5093488;28;20186;-87
2023/01/04 11:11:43;;;;;;;0.00;0.00;;;11.60;99.90;;;;;;5094457;28;20487;-87
2023/01/04 11:14:09;;;;;;;3.45;2.42;;;11.70;99.90;;;;;;5093693;28;20074;-87
2023/01/04 11:16:38;;;;;;;11.70;0.55;;;11.70;99.90;;;;;;5092388;28;20066;-86
2023/01/04 11:19:06;;;;;;;0.05;0.05;;;11.70;99.90;;;;;;5092774;28;20587;-86
2023/01/04 11:21:40;;;;;;;1.17;0.75;;;11.80;99.90;;;;;;5093235;28;20040;-87
2023/01/04 11:24:07;;;;;;;1.83;1.70;;;11.80;99.90;;;;;;5093316;28;20059;-86
2023/01/04 11:26:42;;;;;;;0.47;0.47;;;11.80;99.90;;;;;;5093228;28;20047;-87
2023/01/04 11:29:31;;;;;;;2.00;0.93;;;11.70;99.90;;;;;;5094725;28;20119;-87
2023/01/04 11:32:05;;;;;;;0.22;0.22;;;11.70;99.90;;;;;;5092827;28;20399;-86
2023/01/04 11:34:52;;;;;;;1.15;0.95;;;11.80;99.90;;;;;;5108888;28;20078;-86
2023/01/04 11:37:39;;;;;;;0.10;0.10;;;11.70;99.90;;;;;;5092832;28;20509;-86
2023/01/04 11:40:17;;;;;;;1.90;1.50;;;11.70;99.90;;;;;;5072571;28;20526;-87
2023/01/04 11:43:19;;;;;;;0.43;0.38;;;11.80;99.90;;;;;;5072770;28;20044;-87
2023/01/04 11:46:14;;;;;;;0.17;0.17;;;11.90;99.90;;;;;;5072918;28;20509;-87
2023/01/04 11:48:43;;;;;;;2.05;0.47;;;11.90;99.90;;;;;;5090926;28;20133;-86
2023/01/04 11:51:19;;;;;;;0.13;0.13;;;11.90;99.90;;;;;;5095132;28;20518;-86
2023/01/04 11:53:55;;;;;;;1.05;0.95;;;12.00;99.90;;;;;;5094178;28;20831;-86
2023/01/04 11:56:22;;;;;;;0.28;0.20;;;12.00;99.90;;;;;;5093978;28;20704;-86
2023/01/04 11:59:08;;;;;;;0.55;0.50;;;12.60;99.90;;;;;;5094820;28;20048;-86
2023/01/04 12:01:36;;;;;;;0.57;0.57;;;12.10;99.90;;;;;;5083704;28;20056;-87
2023/01/04 12:04:08;;;;;;;0.75;0.75;;;13.10;99.90;;;;;;5095142;28;20093;-86
2023/01/04 12:06:55;;;;;;;0.77;0.70;;;12.10;99.90;;;;;;5095097;28;20044;-87
2023/01/04 12:09:21;;;;;;;0.52;0.43;;;12.10;99.90;;;;;;5075332;28;20041;-86
2023/01/04 12:11:54;;;;;;;0.45;0.45;;;12.10;99.90;;;;;;5074758;28;20119;-86
2023/01/04 12:14:33;;;;;;;0.65;0.65;;;12.10;99.90;;;;;;5078557;28;20040;-86
2023/01/04 12:17:15;;;;;;;1.10;0.45;;;12.50;99.90;;;;;;5087821;28;20036;-86
2023/01/04 12:19:42;;;;;;;0.52;0.52;;;12.20;99.90;;;;;;5073383;28;20395;-86
2023/01/04 12:22:32;;;;;;;5.13;1.50;;;12.40;99.90;;;;;;5082451;28;20032;-86
2023/01/04 12:24:58;;;;;;;6.82;1.85;;;12.20;99.90;;;;;;5093629;28;20051;-86
2023/01/04 12:27:24;;;;;;;2.53;0.35;;;12.20;99.90;;;;;;5093310;28;20119;-87
2023/01/04 12:29:53;;;;;;;0.80;0.80;;;13.40;99.90;;;;;;5093453;28;20178;-88
2023/01/04 12:32:18;;;;;;;0.22;0.08;;;12.20;99.90;;;;;;5093065;28;20036;-87
2023/01/04 12:34:46;;;;;;;0.52;0.45;;;12.30;99.90;;;;;;5093432;28;20395;-86
2023/01/04 12:37:37;;;;;;;0.20;0.20;;;12.20;99.90;;;;;;5093446;28;20048;-86
2023/01/04 12:40:23;;;;;;;0.10;0.10;;;12.20;99.90;;;;;;5093558;28;20040;-86
2023/01/04 12:43:14;;;;;;;0.10;0.10;;;12.30;99.90;;;;;;5056575;28;20550;-86
2023/01/04 12:45:40;;;;;;;1.17;0.50;;;12.30;99.90;;;;;;5092605;28;20052;-86
2023/01/04 12:51:23;;;;;;;0.40;0.40;;;12.30;99.90;;;;;;5092765;28;20048;-87
2023/01/04 12:54:01;;;;;;;0.73;0.65;;;12.80;99.90;;;;;;5092480;28;20071;-86
2023/01/04 12:57:08;;;;;;;0.25;0.25;;;12.20;99.90;;;;;;5092787;28;20044;-86
2023/01/04 12:59:36;;;;;;;0.10;0.10;;;12.20;99.90;;;;;;5092651;28;20052;-86
2023/01/04 13:02:22;;;;;;;0.17;0.17;;;12.30;99.90;;;;;;5092733;28;20056;-86
2023/01/04 13:04:50;;;;;;;0.20;0.20;;;13.10;99.90;;;;;;5092950;28;20093;-87
2023/01/04 13:07:24;;;;;;;0.00;0.00;;;13.10;99.90;;;;;;5091284;28;20075;-87
2023/01/04 13:09:58;;;;;;;0.00;0.00;;;12.30;99.90;;;;;;5093543;28;20162;-87
2023/01/04 13:12:44;;;;;;;0.00;0.00;;;12.30;99.90;;;;;;5094555;28;20043;-85
2023/01/04 13:15:42;;;;;;;0.13;0.13;;;12.30;99.90;;;;;;5094229;28;20078;-86
2023/01/04 13:18:37;;;;;;;0.00;0.00;;;12.20;99.90;;;;;;5062647;28;20210;-87
2023/01/04 13:21:20;;;;;;;0.00;0.00;;;12.20;99.90;;;;;;5063899;28;20074;-87
2023/01/04 13:23:51;;;;;;;0.17;0.10;;;12.80;99.90;;;;;;5093683;28;20063;-87
2023/01/04 13:26:30;;;;;;;0.20;0.20;;;12.20;99.90;;;;;;5093006;28;20055;-86
2023/01/04 13:29:13;;;;;;;0.00;0.00;;;12.20;99.90;;;;;;5093913;28;20040;-87
2023/01/04 13:31:51;;;;;;;8.80;2.00;;;12.20;99.90;;;;;;5093749;28;20046;-87
2023/01/04 13:34:42;;;;;;;1.20;1.10;;;12.20;99.90;;;;;;5093404;28;20044;-87
2023/01/04 13:37:10;;;;;;;0.00;0.00;;;12.20;99.90;;;;;;5093100;28;20054;-86
2023/01/04 13:39:39;;;;;;;1.08;0.30;;;12.20;99.90;;;;;;5093064;28;20450;-86
2023/01/04 13:42:11;;;;;;;0.47;0.47;;;12.30;99.90;;;;;;5088944;28;20044;-87
2023/01/04 13:45:05;;;;;;;1.70;1.08;;;12.30;99.90;;;;;;5093020;28;20079;-86
2023/01/04 13:47:35;;;;;;;0.52;0.52;;;12.30;99.90;;;;;;5072386;28;20057;-86
2023/01/04 13:50:01;;;;;;;0.85;0.77;;;12.30;99.90;;;;;;5073041;28;20056;-86
2023/01/04 13:52:28;;;;;;;0.98;0.88;;;12.20;99.90;;;;;;5073591;28;20071;-86
2023/01/04 13:55:19;;;;;;;0.03;0.03;;;12.20;99.90;;;;;;5085768;28;20044;-86
2023/01/04 13:57:53;;;;;;;0.75;0.28;;;12.20;99.90;;;;;;5094209;28;20076;-86
2023/01/04 14:00:19;;;;;;;0.00;0.00;;;12.20;99.90;;;;;;5093292;28;20080;-86
2023/01/04 14:02:45;;;;;;;8.63;0.30;;;12.20;99.90;;;;;;5094363;28;20032;-86
2023/01/04 14:05:18;;;;;;;0.00;0.00;;;12.10;99.90;;;;;;5091522;28;20036;-86